sensor_id;sensor_type;location;lat;lon;timestamp;temperature;humidity
38936;DHT22;25541;47.458;9.644;2022-11-20T05:01:41;7.70;83.60
38936;DHT22;25541;47.458;9.644;2022-11-20T05:04:07;7.60;83.10
38936;DHT22;25541;47.458;9.644;2022-11-20T05:06:33;7.60;83.00
38936;DHT22;25541;47.458;9.644;2022-11-20T05:08:59;7.60;83.20
38936;DHT22;25541;47.458;9.644;2022-11-20T05:11:25;7.70;83.00
38936;DHT22;25541;47.458;9.644;2022-11-20T05:13:51;7.70;83.50
38936;DHT22;25541;47.458;9.644;2022-11-20T05:16:19;7.80;83.70
38936;DHT22;25541;47.458;9.644;2022-11-20T05:18:46;7.80;83.50
38936;DHT22;25541;47.458;9.644;2022-11-20T05:21:12;7.90;82.60
38936;DHT22;25541;47.458;9.644;2022-11-20T05:23:38;7.90;83.50
38936;DHT22;25541;47.458;9.644;2022-11-20T05:26:06;7.90;82.70
38936;DHT22;25541;47.458;9.644;2022-11-20T05:28:32;8.00;83.30
38936;DHT22;25541;47.458;9.644;2022-11-20T05:31:09;8.00;83.70
38936;DHT22;25541;47.458;9.644;2022-11-20T05:33:36;8.00;83.40
38936;DHT22;25541;47.458;9.644;2022-11-20T05:36:03;8.00;82.10
38936;DHT22;25541;47.458;9.644;2022-11-20T05:38:29;8.10;82.30
38936;DHT22;25541;47.458;9.644;2022-11-20T05:40:55;8.10;81.30
38936;DHT22;25541;47.458;9.644;2022-11-20T05:43:20;8.10;81.10
38936;DHT22;25541;47.458;9.644;2022-11-20T05:45:55;8.20;80.90
38936;DHT22;25541;47.458;9.644;2022-11-20T05:48:21;8.20;80.50
38936;DHT22;25541;47.458;9.644;2022-11-20T05:50:48;8.20;80.30
38936;DHT22;25541;47.458;9.644;2022-11-20T05:53:13;8.20;80.90
38936;DHT22;25541;47.458;9.644;2022-11-20T05:55:39;8.20;80.80
38936;DHT22;25541;47.458;9.644;2022-11-20T05:58:04;8.30;80.20
38936;DHT22;25541;47.458;9.644;2022-11-20T06:00:30;8.20;80.50
38936;DHT22;25541;47.458;9.644;2022-11-20T06:02:56;8.20;80.50
38936;DHT22;25541;47.458;9.644;2022-11-20T06:05:22;8.20;81.10
38936;DHT22;25541;47.458;9.644;2022-11-20T06:07:47;8.20;81.60
38936;DHT22;25541;47.458;9.644;2022-11-20T06:10:13;8.10;81.30
38936;DHT22;25541;47.458;9.644;2022-11-20T06:12:38;8.10;80.50
38936;DHT22;25541;47.458;9.644;2022-11-20T06:15:05;8.10;81.20
38936;DHT22;25541;47.458;9.644;2022-11-20T06:17:31;8.10;81.30
38936;DHT22;25541;47.458;9.644;2022-11-20T06:19:56;8.10;81.30
38936;DHT22;25541;47.458;9.644;2022-11-20T06:22:22;8.00;82.10
38936;DHT22;25541;47.458;9.644;2022-11-20T06:24:48;8.00;82.60
38936;DHT22;25541;47.458;9.644;2022-11-20T06:27:13;8.00;83.20
38936;DHT22;25541;47.458;9.644;2022-11-20T06:29:39;8.00;84.00
38936;DHT22;25541;47.458;9.644;2022-11-20T06:32:05;7.90;84.50
38936;DHT22;25541;47.458;9.644;2022-11-20T06:34:30;7.90;85.60
38936;DHT22;25541;47.458;9.644;2022-11-20T06:36:56;7.80;86.90
38936;DHT22;25541;47.458;9.644;2022-11-20T06:39:22;7.90;86.40
38936;DHT22;25541;47.458;9.644;2022-11-20T06:41:47;7.90;86.60
38936;DHT22;25541;47.458;9.644;2022-11-20T06:44:13;7.90;87.00
38936;DHT22;25541;47.458;9.644;2022-11-20T06:46:38;7.90;86.70
38936;DHT22;25541;47.458;9.644;2022-11-20T06:49:04;7.90;87.20
38936;DHT22;25541;47.458;9.644;2022-11-20T06:51:30;8.00;86.70
38936;DHT22;25541;47.458;9.644;2022-11-20T06:53:55;8.00;86.70
38936;DHT22;25541;47.458;9.644;2022-11-20T06:56:21;8.00;86.60
38936;DHT22;25541;47.458;9.644;2022-11-20T06:58:47;8.00;87.10
38936;DHT22;25541;47.458;9.644;2022-11-20T07:01:14;8.00;87.70
38936;DHT22;25541;47.458;9.644;2022-11-20T07:03:40;8.00;88.40
38936;DHT22;25541;47.458;9.644;2022-11-20T07:06:07;8.00;87.80
38936;DHT22;25541;47.458;9.644;2022-11-20T07:08:33;8.00;88.20
38936;DHT22;25541;47.458;9.644;2022-11-20T07:11:00;8.00;88.40
38936;DHT22;25541;47.458;9.644;2022-11-20T07:13:30;8.00;88.00
38936;DHT22;25541;47.458;9.644;2022-11-20T07:15:59;8.00;88.50
38936;DHT22;25541;47.458;9.644;2022-11-20T07:18:26;8.00;88.40
38936;DHT22;25541;47.458;9.644;2022-11-20T07:20:52;8.00;88.90
38936;DHT22;25541;47.458;9.644;2022-11-20T07:23:18;8.00;88.80
38936;DHT22;25541;47.458;9.644;2022-11-20T07:25:44;8.00;88.30
38936;DHT22;25541;47.458;9.644;2022-11-20T07:28:09;8.00;89.10
38936;DHT22;25541;47.458;9.644;2022-11-20T07:30:36;8.00;89.70
38936;DHT22;25541;47.458;9.644;2022-11-20T07:33:01;8.10;89.80
38936;DHT22;25541;47.458;9.644;2022-11-20T07:35:27;8.10;89.50
38936;DHT22;25541;47.458;9.644;2022-11-20T07:37:53;8.10;87.70
38936;DHT22;25541;47.458;9.644;2022-11-20T07:40:19;8.10;87.30
38936;DHT22;25541;47.458;9.644;2022-11-20T07:42:49;8.20;87.40
38936;DHT22;25541;47.458;9.644;2022-11-20T07:45:15;8.20;87.10
38936;DHT22;25541;47.458;9.644;2022-11-20T07:47:41;8.30;87.00
38936;DHT22;25541;47.458;9.644;2022-11-20T07:50:07;8.30;86.30
38936;DHT22;25541;47.458;9.644;2022-11-20T07:52:33;8.40;85.40
38936;DHT22;25541;47.458;9.644;2022-11-20T07:54:58;8.50;85.80
38936;DHT22;25541;47.458;9.644;2022-11-20T07:57:24;8.60;86.20
38936;DHT22;25541;47.458;9.644;2022-11-20T07:59:50;8.60;85.80
38936;DHT22;25541;47.458;9.644;2022-11-20T08:02:15;8.60;84.60
38936;DHT22;25541;47.458;9.644;2022-11-20T08:04:41;8.70;84.00
38936;DHT22;25541;47.458;9.644;2022-11-20T08:07:06;8.70;85.30
38936;DHT22;25541;47.458;9.644;2022-11-20T08:09:32;8.80;84.80
38936;DHT22;25541;47.458;9.644;2022-11-20T08:11:58;8.90;83.60
38936;DHT22;25541;47.458;9.644;2022-11-20T08:14:42;8.90;83.20
38936;DHT22;25541;47.458;9.644;2022-11-20T08:17:07;8.90;84.10
38936;DHT22;25541;47.458;9.644;2022-11-20T08:19:33;9.00;83.80
38936;DHT22;25541;47.458;9.644;2022-11-20T08:21:59;9.00;83.40
38936;DHT22;25541;47.458;9.644;2022-11-20T08:24:24;9.10;82.60
38936;DHT22;25541;47.458;9.644;2022-11-20T08:26:52;9.10;83.40
38936;DHT22;25541;47.458;9.644;2022-11-20T08:29:18;9.10;83.10
38936;DHT22;25541;47.458;9.644;2022-11-20T08:31:43;9.20;84.00
38936;DHT22;25541;47.458;9.644;2022-11-20T08:34:09;9.20;83.20
38936;DHT22;25541;47.458;9.644;2022-11-20T08:36:35;9.20;83.50
38936;DHT22;25541;47.458;9.644;2022-11-20T08:39:01;9.20;82.90
38936;DHT22;25541;47.458;9.644;2022-11-20T08:41:27;9.30;82.60
38936;DHT22;25541;47.458;9.644;2022-11-20T08:43:57;9.30;83.40
38936;DHT22;25541;47.458;9.644;2022-11-20T08:46:30;9.30;82.50
38936;DHT22;25541;47.458;9.644;2022-11-20T08:48:56;9.30;82.10
38936;DHT22;25541;47.458;9.644;2022-11-20T08:51:21;9.40;82.80
38936;DHT22;25541;47.458;9.644;2022-11-20T08:53:47;9.50;82.30
38936;DHT22;25541;47.458;9.644;2022-11-20T08:56:14;9.40;82.10
38936;DHT22;25541;47.458;9.644;2022-11-20T08:58:40;9.40;82.80
38936;DHT22;25541;47.458;9.644;2022-11-20T09:01:06;9.50;82.80
38936;DHT22;25541;47.458;9.644;2022-11-20T09:03:31;9.70;82.40
38936;DHT22;25541;47.458;9.644;2022-11-20T09:05:59;10.00;82.00
38936;DHT22;25541;47.458;9.644;2022-11-20T09:08:25;10.20;80.60
38936;DHT22;25541;47.458;9.644;2022-11-20T09:10:52;10.50;79.80
38936;DHT22;25541;47.458;9.644;2022-11-20T09:13:19;10.60;80.10
38936;DHT22;25541;47.458;9.644;2022-11-20T09:15:45;10.80;78.80
38936;DHT22;25541;47.458;9.644;2022-11-20T09:18:10;11.90;77.30
38936;DHT22;25541;47.458;9.644;2022-11-20T09:20:36;12.40;73.10
38936;DHT22;25541;47.458;9.644;2022-11-20T09:23:02;12.30;72.70
38936;DHT22;25541;47.458;9.644;2022-11-20T09:25:28;12.20;74.10
38936;DHT22;25541;47.458;9.644;2022-11-20T09:27:57;13.00;73.90
38936;DHT22;25541;47.458;9.644;2022-11-20T09:30:23;13.30;69.70
38936;DHT22;25541;47.458;9.644;2022-11-20T09:32:49;13.00;70.70
38936;DHT22;25541;47.458;9.644;2022-11-20T09:35:15;12.80;70.80
38936;DHT22;25541;47.458;9.644;2022-11-20T09:37:41;13.00;67.90
38936;DHT22;25541;47.458;9.644;2022-11-20T09:40:09;12.90;67.30
38936;DHT22;25541;47.458;9.644;2022-11-20T09:43:05;12.90;68.60
38936;DHT22;25541;47.458;9.644;2022-11-20T09:45:47;14.00;65.60
38936;DHT22;25541;47.458;9.644;2022-11-20T09:48:42;14.40;63.30
38936;DHT22;25541;47.458;9.644;2022-11-20T09:54:16;17.90;55.00
38936;DHT22;25541;47.458;9.644;2022-11-20T09:56:46;20.30;52.70
38936;DHT22;25541;47.458;9.644;2022-11-20T09:59:29;21.60;49.80
38936;DHT22;25541;47.458;9.644;2022-11-20T10:01:59;20.90;48.50
38936;DHT22;25541;47.458;9.644;2022-11-20T10:04:25;19.50;50.30
38936;DHT22;25541;47.458;9.644;2022-11-20T10:07:04;18.00;52.90
38936;DHT22;25541;47.458;9.644;2022-11-20T10:09:37;16.60;55.90
38936;DHT22;25541;47.458;9.644;2022-11-20T10:12:45;15.50;58.80
38936;DHT22;25541;47.458;9.644;2022-11-20T10:15:45;14.70;61.20
38936;DHT22;25541;47.458;9.644;2022-11-20T10:21:05;13.50;62.80
38936;DHT22;25541;47.458;9.644;2022-11-20T10:23:50;13.10;63.40
38936;DHT22;25541;47.458;9.644;2022-11-20T10:29:14;12.50;65.60
38936;DHT22;25541;47.458;9.644;2022-11-20T10:31:44;12.30;66.30
38936;DHT22;25541;47.458;9.644;2022-11-20T10:34:31;12.10;67.40
38936;DHT22;25541;47.458;9.644;2022-11-20T10:37:09;12.00;66.50
38936;DHT22;25541;47.458;9.644;2022-11-20T10:42:40;11.80;66.00
38936;DHT22;25541;47.458;9.644;2022-11-20T10:50:56;11.80;64.50
38936;DHT22;25541;47.458;9.644;2022-11-20T10:56:07;11.40;66.30
38936;DHT22;25541;47.458;9.644;2022-11-20T10:58:43;11.10;67.80
38936;DHT22;25541;47.458;9.644;2022-11-20T11:01:17;11.00;68.70
38936;DHT22;25541;47.458;9.644;2022-11-20T11:03:44;11.00;68.40
38936;DHT22;25541;47.458;9.644;2022-11-20T11:06:36;11.10;68.20
38936;DHT22;25541;47.458;9.644;2022-11-20T11:09:10;11.10;67.80
38936;DHT22;25541;47.458;9.644;2022-11-20T11:11:38;11.10;68.00
38936;DHT22;25541;47.458;9.644;2022-11-20T11:14:06;11.10;68.70
38936;DHT22;25541;47.458;9.644;2022-11-20T11:16:31;11.00;69.20
38936;DHT22;25541;47.458;9.644;2022-11-20T11:19:13;11.00;68.80
38936;DHT22;25541;47.458;9.644;2022-11-20T11:21:49;11.10;68.40
38936;DHT22;25541;47.458;9.644;2022-11-20T11:27:12;11.50;66.40
38936;DHT22;25541;47.458;9.644;2022-11-20T11:29:38;11.70;65.40
38936;DHT22;25541;47.458;9.644;2022-11-20T11:32:20;11.80;67.60
38936;DHT22;25541;47.458;9.644;2022-11-20T11:35:04;11.90;66.90
38936;DHT22;25541;47.458;9.644;2022-11-20T11:37:34;12.10;64.50
38936;DHT22;25541;47.458;9.644;2022-11-20T11:40:01;12.20;63.70
38936;DHT22;25541;47.458;9.644;2022-11-20T11:42:28;12.20;62.80
38936;DHT22;25541;47.458;9.644;2022-11-20T11:44:56;12.30;63.20
38936;DHT22;25541;47.458;9.644;2022-11-20T11:47:45;12.30;63.30
38936;DHT22;25541;47.458;9.644;2022-11-20T11:52:51;12.40;63.00
38936;DHT22;25541;47.458;9.644;2022-11-20T11:57:59;12.50;64.90
38936;DHT22;25541;47.458;9.644;2022-11-20T12:00:27;12.60;64.90
38936;DHT22;25541;47.458;9.644;2022-11-20T12:03:02;12.60;65.00
38936;DHT22;25541;47.458;9.644;2022-11-20T12:05:32;12.70;64.40
38936;DHT22;25541;47.458;9.644;2022-11-20T12:15:44;12.60;62.40
38936;DHT22;25541;47.458;9.644;2022-11-20T12:18:20;12.50;63.60
38936;DHT22;25541;47.458;9.644;2022-11-20T12:20:55;12.50;63.90
38936;DHT22;25541;47.458;9.644;2022-11-20T12:26:34;12.00;65.30
38936;DHT22;25541;47.458;9.644;2022-11-20T12:32:22;12.20;64.60
38936;DHT22;25541;47.458;9.644;2022-11-20T12:37:45;12.10;65.50
38936;DHT22;25541;47.458;9.644;2022-11-20T12:41:17;12.10;67.20
38936;DHT22;25541;47.458;9.644;2022-11-20T12:43:23;12.10;64.80
38936;DHT22;25541;47.458;9.644;2022-11-20T12:46:18;12.20;65.00
38936;DHT22;25541;47.458;9.644;2022-11-20T12:49:08;12.10;63.40
38936;DHT22;25541;47.458;9.644;2022-11-20T12:57:58;12.30;63.80
38936;DHT22;25541;47.458;9.644;2022-11-20T13:00:25;12.10;64.00
38936;DHT22;25541;47.458;9.644;2022-11-20T13:05:48;12.20;63.70
38936;DHT22;25541;47.458;9.644;2022-11-20T13:08:25;12.30;63.70
38936;DHT22;25541;47.458;9.644;2022-11-20T13:11:17;12.40;62.40
38936;DHT22;25541;47.458;9.644;2022-11-20T13:17:04;12.40;63.20
38936;DHT22;25541;47.458;9.644;2022-11-20T13:19:31;12.40;62.40
38936;DHT22;25541;47.458;9.644;2022-11-20T13:21:57;12.30;64.20
38936;DHT22;25541;47.458;9.644;2022-11-20T13:24:29;12.30;63.50
38936;DHT22;25541;47.458;9.644;2022-11-20T13:29:44;12.30;63.60
38936;DHT22;25541;47.458;9.644;2022-11-20T13:32:14;12.40;63.70
38936;DHT22;25541;47.458;9.644;2022-11-20T13:34:52;12.50;61.50
38936;DHT22;25541;47.458;9.644;2022-11-20T13:37:45;12.50;61.00
38936;DHT22;25541;47.458;9.644;2022-11-20T13:42:40;12.60;62.20
38936;DHT22;25541;47.458;9.644;2022-11-20T13:45:21;12.60;60.80
38936;DHT22;25541;47.458;9.644;2022-11-20T13:47:51;12.50;61.10
38936;DHT22;25541;47.458;9.644;2022-11-20T13:50:18;12.40;61.10
38936;DHT22;25541;47.458;9.644;2022-11-20T13:53:06;12.40;61.80
38936;DHT22;25541;47.458;9.644;2022-11-20T13:55:54;12.20;62.10
38936;DHT22;25541;47.458;9.644;2022-11-20T14:01:28;11.80;62.70
38936;DHT22;25541;47.458;9.644;2022-11-20T14:03:55;11.80;63.30
38936;DHT22;25541;47.458;9.644;2022-11-20T14:06:30;11.70;62.60
38936;DHT22;25541;47.458;9.644;2022-11-20T14:08:57;11.50;62.70
38936;DHT22;25541;47.458;9.644;2022-11-20T14:11:28;11.50;62.20
38936;DHT22;25541;47.458;9.644;2022-11-20T14:16:35;11.30;62.30
38936;DHT22;25541;47.458;9.644;2022-11-20T14:21:49;11.10;63.70
38936;DHT22;25541;47.458;9.644;2022-11-20T14:24:23;11.00;64.10
38936;DHT22;25541;47.458;9.644;2022-11-20T14:26:50;11.00;63.40
38936;DHT22;25541;47.458;9.644;2022-11-20T14:29:20;11.00;64.00
38936;DHT22;25541;47.458;9.644;2022-11-20T14:31:50;10.90;67.70
38936;DHT22;25541;47.458;9.644;2022-11-20T14:34:24;10.80;64.00
38936;DHT22;25541;47.458;9.644;2022-11-20T14:37:01;10.90;64.30
38936;DHT22;25541;47.458;9.644;2022-11-20T14:39:34;10.90;64.50
38936;DHT22;25541;47.458;9.644;2022-11-20T14:42:00;10.90;64.30
38936;DHT22;25541;47.458;9.644;2022-11-20T14:44:29;10.70;63.60
38936;DHT22;25541;47.458;9.644;2022-11-20T14:46:57;10.70;63.50
38936;DHT22;25541;47.458;9.644;2022-11-20T14:49:24;10.80;64.20
38936;DHT22;25541;47.458;9.644;2022-11-20T14:51:59;10.80;63.90
38936;DHT22;25541;47.458;9.644;2022-11-20T14:54:25;10.70;63.70
38936;DHT22;25541;47.458;9.644;2022-11-20T14:57:03;10.60;64.40
38936;DHT22;25541;47.458;9.644;2022-11-20T14:59:32;10.50;64.70
38936;DHT22;25541;47.458;9.644;2022-11-20T15:02:05;10.30;62.50
38936;DHT22;25541;47.458;9.644;2022-11-20T15:04:31;10.20;63.50
38936;DHT22;25541;47.458;9.644;2022-11-20T15:06:59;10.00;62.30
38936;DHT22;25541;47.458;9.644;2022-11-20T15:09:25;9.80;62.80
38936;DHT22;25541;47.458;9.644;2022-11-20T15:11:59;9.70;63.30
38936;DHT22;25541;47.458;9.644;2022-11-20T15:14:27;9.60;64.10
38936;DHT22;25541;47.458;9.644;2022-11-20T15:16:54;9.50;64.10
38936;DHT22;25541;47.458;9.644;2022-11-20T15:19:25;9.40;64.00
38936;DHT22;25541;47.458;9.644;2022-11-20T15:21:52;9.30;64.90
38936;DHT22;25541;47.458;9.644;2022-11-20T15:24:18;9.20;65.10
38936;DHT22;25541;47.458;9.644;2022-11-20T15:26:44;9.10;65.90
38936;DHT22;25541;47.458;9.644;2022-11-20T15:29:12;9.10;65.70
38936;DHT22;25541;47.458;9.644;2022-11-20T15:31:38;9.00;66.30
38936;DHT22;25541;47.458;9.644;2022-11-20T15:34:14;8.90;66.80
38936;DHT22;25541;47.458;9.644;2022-11-20T15:36:41;8.90;67.00
38936;DHT22;25541;47.458;9.644;2022-11-20T15:39:07;8.80;67.30
38936;DHT22;25541;47.458;9.644;2022-11-20T15:41:35;8.80;66.90
38936;DHT22;25541;47.458;9.644;2022-11-20T15:44:07;8.80;67.20
38936;DHT22;25541;47.458;9.644;2022-11-20T15:46:35;8.70;68.20
38936;DHT22;25541;47.458;9.644;2022-11-20T15:49:12;8.60;68.50
38936;DHT22;25541;47.458;9.644;2022-11-20T15:51:46;8.40;69.00
38936;DHT22;25541;47.458;9.644;2022-11-20T15:54:18;8.40;68.10
38936;DHT22;25541;47.458;9.644;2022-11-20T15:56:46;8.30;68.30
38936;DHT22;25541;47.458;9.644;2022-11-20T15:59:12;8.20;68.60
38936;DHT22;25541;47.458;9.644;2022-11-20T16:01:40;8.20;68.30
38936;DHT22;25541;47.458;9.644;2022-11-20T16:04:11;8.20;68.20
38936;DHT22;25541;47.458;9.644;2022-11-20T16:06:37;8.10;68.50
38936;DHT22;25541;47.458;9.644;2022-11-20T16:09:03;8.10;68.10
38936;DHT22;25541;47.458;9.644;2022-11-20T16:11:29;8.00;68.00
38936;DHT22;25541;47.458;9.644;2022-11-20T16:13:54;8.00;68.30
38936;DHT22;25541;47.458;9.644;2022-11-20T16:16:38;8.00;69.30
38936;DHT22;25541;47.458;9.644;2022-11-20T16:19:05;8.00;70.50
38936;DHT22;25541;47.458;9.644;2022-11-20T16:21:31;7.90;70.90
38936;DHT22;25541;47.458;9.644;2022-11-20T16:24:02;7.80;70.20
38936;DHT22;25541;47.458;9.644;2022-11-20T16:26:28;7.80;70.50
38936;DHT22;25541;47.458;9.644;2022-11-20T16:28:54;7.70;71.00
38936;DHT22;25541;47.458;9.644;2022-11-20T16:31:20;7.70;71.10
38936;DHT22;25541;47.458;9.644;2022-11-20T16:33:57;7.60;73.10
38936;DHT22;25541;47.458;9.644;2022-11-20T16:36:24;7.60;72.50
38936;DHT22;25541;47.458;9.644;2022-11-20T16:38:54;7.50;73.20
38936;DHT22;25541;47.458;9.644;2022-11-20T16:41:21;7.40;73.30
38936;DHT22;25541;47.458;9.644;2022-11-20T16:43:49;7.40;73.00
38936;DHT22;25541;47.458;9.644;2022-11-20T16:46:19;7.40;73.70
38936;DHT22;25541;47.458;9.644;2022-11-20T16:49:02;7.30;74.90
38936;DHT22;25541;47.458;9.644;2022-11-20T16:51:30;7.30;75.20
38936;DHT22;25541;47.458;9.644;2022-11-20T16:53:56;7.30;76.30
38936;DHT22;25541;47.458;9.644;2022-11-20T16:56:26;7.40;76.80
38936;DHT22;25541;47.458;9.644;2022-11-20T16:58:54;7.30;77.50
38936;DHT22;25541;47.458;9.644;2022-11-20T17:01:21;7.30;78.10
38936;DHT22;25541;47.458;9.644;2022-11-20T17:03:55;7.30;78.60
38936;DHT22;25541;47.458;9.644;2022-11-20T17:06:23;7.30;79.00
38936;DHT22;25541;47.458;9.644;2022-11-20T17:08:49;7.30;79.30
38936;DHT22;25541;47.458;9.644;2022-11-20T17:11:17;7.30;79.80
38936;DHT22;25541;47.458;9.644;2022-11-20T17:13:44;7.30;80.00
38936;DHT22;25541;47.458;9.644;2022-11-20T17:16:12;7.20;80.20
38936;DHT22;25541;47.458;9.644;2022-11-20T17:18:38;7.20;80.50
38936;DHT22;25541;47.458;9.644;2022-11-20T17:21:05;7.20;81.10
38936;DHT22;25541;47.458;9.644;2022-11-20T17:23:36;7.20;81.80
38936;DHT22;25541;47.458;9.644;2022-11-20T17:26:10;7.20;81.60
38936;DHT22;25541;47.458;9.644;2022-11-20T17:28:38;7.20;82.00
38936;DHT22;25541;47.458;9.644;2022-11-20T17:31:07;7.20;81.10
38936;DHT22;25541;47.458;9.644;2022-11-20T17:33:35;7.20;81.40
38936;DHT22;25541;47.458;9.644;2022-11-20T17:36:01;7.20;81.50
38936;DHT22;25541;47.458;9.644;2022-11-20T17:38:27;7.10;81.90
38936;DHT22;25541;47.458;9.644;2022-11-20T17:41:00;7.10;82.50
38936;DHT22;25541;47.458;9.644;2022-11-20T17:43:26;7.10;81.80
38936;DHT22;25541;47.458;9.644;2022-11-20T17:45:52;7.10;81.90
38936;DHT22;25541;47.458;9.644;2022-11-20T17:48:17;7.10;82.00
38936;DHT22;25541;47.458;9.644;2022-11-20T17:50:43;7.00;82.20
38936;DHT22;25541;47.458;9.644;2022-11-20T17:53:08;7.00;82.30
38936;DHT22;25541;47.458;9.644;2022-11-20T17:55:34;6.90;82.20
38936;DHT22;25541;47.458;9.644;2022-11-20T17:58:20;7.00;84.20
38936;DHT22;25541;47.458;9.644;2022-11-20T18:00:45;7.00;82.80
38936;DHT22;25541;47.458;9.644;2022-11-20T18:03:11;7.00;82.50
38936;DHT22;25541;47.458;9.644;2022-11-20T18:05:37;7.00;82.80
38936;DHT22;25541;47.458;9.644;2022-11-20T18:08:02;7.00;82.90
38936;DHT22;25541;47.458;9.644;2022-11-20T18:10:29;6.90;82.80
38936;DHT22;25541;47.458;9.644;2022-11-20T18:12:55;6.80;83.10
38936;DHT22;25541;47.458;9.644;2022-11-20T18:15:20;6.80;84.70
38936;DHT22;25541;47.458;9.644;2022-11-20T18:17:47;7.00;90.10
38936;DHT22;25541;47.458;9.644;2022-11-20T18:20:12;7.20;85.70
38936;DHT22;25541;47.458;9.644;2022-11-20T18:22:38;7.40;82.80
38936;DHT22;25541;47.458;9.644;2022-11-20T18:25:04;7.50;87.70
38936;DHT22;25541;47.458;9.644;2022-11-20T18:27:31;7.50;81.90
38936;DHT22;25541;47.458;9.644;2022-11-20T18:29:56;7.80;94.90
38936;DHT22;25541;47.458;9.644;2022-11-20T18:32:22;8.20;90.30
38936;DHT22;25541;47.458;9.644;2022-11-20T18:34:48;8.10;81.20
38936;DHT22;25541;47.458;9.644;2022-11-20T18:37:14;7.90;79.90
38936;DHT22;25541;47.458;9.644;2022-11-20T18:39:41;7.80;81.50
38936;DHT22;25541;47.458;9.644;2022-11-20T18:42:11;7.80;80.90
38936;DHT22;25541;47.458;9.644;2022-11-20T18:44:55;7.70;80.10
38936;DHT22;25541;47.458;9.644;2022-11-20T18:47:23;7.60;80.40
38936;DHT22;25541;47.458;9.644;2022-11-20T18:49:51;7.50;80.60
38936;DHT22;25541;47.458;9.644;2022-11-20T18:52:19;7.50;81.10
38936;DHT22;25541;47.458;9.644;2022-11-20T18:54:45;7.40;81.10
38936;DHT22;25541;47.458;9.644;2022-11-20T18:57:11;7.30;81.90
38936;DHT22;25541;47.458;9.644;2022-11-20T18:59:40;7.20;82.10
38936;DHT22;25541;47.458;9.644;2022-11-20T19:02:09;7.30;82.10
38936;DHT22;25541;47.458;9.644;2022-11-20T19:04:35;7.30;81.70
38936;DHT22;25541;47.458;9.644;2022-11-20T19:07:01;7.30;81.90
38936;DHT22;25541;47.458;9.644;2022-11-20T19:09:27;7.30;82.10
38936;DHT22;25541;47.458;9.644;2022-11-20T19:11:53;7.40;82.00
38936;DHT22;25541;47.458;9.644;2022-11-20T19:14:19;7.40;81.60
38936;DHT22;25541;47.458;9.644;2022-11-20T19:16:45;7.40;82.10
38936;DHT22;25541;47.458;9.644;2022-11-20T19:19:13;7.40;82.90
38936;DHT22;25541;47.458;9.644;2022-11-20T19:21:39;7.40;82.10
38936;DHT22;25541;47.458;9.644;2022-11-20T19:24:07;7.40;80.80
38936;DHT22;25541;47.458;9.644;2022-11-20T19:26:36;7.30;80.90
38936;DHT22;25541;47.458;9.644;2022-11-20T19:29:03;7.30;81.50
38936;DHT22;25541;47.458;9.644;2022-11-20T19:31:30;7.40;82.20
38936;DHT22;25541;47.458;9.644;2022-11-20T19:33:58;7.40;81.90
38936;DHT22;25541;47.458;9.644;2022-11-20T19:36:27;7.50;81.70
38936;DHT22;25541;47.458;9.644;2022-11-20T19:38:54;7.50;82.20
38936;DHT22;25541;47.458;9.644;2022-11-20T19:41:23;7.50;80.90
38936;DHT22;25541;47.458;9.644;2022-11-20T19:44:00;7.50;81.80
38936;DHT22;25541;47.458;9.644;2022-11-20T19:46:27;7.50;81.60
38936;DHT22;25541;47.458;9.644;2022-11-20T19:48:54;7.50;80.50
38936;DHT22;25541;47.458;9.644;2022-11-20T19:51:22;7.50;81.20
38936;DHT22;25541;47.458;9.644;2022-11-20T19:53:48;7.50;81.90
38936;DHT22;25541;47.458;9.644;2022-11-20T19:56:14;7.50;81.20
38936;DHT22;25541;47.458;9.644;2022-11-20T19:58:40;7.50;81.20
38936;DHT22;25541;47.458;9.644;2022-11-20T20:01:11;7.60;79.70
38936;DHT22;25541;47.458;9.644;2022-11-20T20:03:39;7.70;79.10
38936;DHT22;25541;47.458;9.644;2022-11-20T20:06:10;7.90;76.10
38936;DHT22;25541;47.458;9.644;2022-11-20T20:08:38;8.10;75.40
38936;DHT22;25541;47.458;9.644;2022-11-20T20:13:35;8.40;75.60
38936;DHT22;25541;47.458;9.644;2022-11-20T20:16:04;8.40;76.60
38936;DHT22;25541;47.458;9.644;2022-11-20T20:18:30;8.40;78.10
38936;DHT22;25541;47.458;9.644;2022-11-20T20:21:01;8.40;78.20
38936;DHT22;25541;47.458;9.644;2022-11-20T20:23:27;8.40;79.10
38936;DHT22;25541;47.458;9.644;2022-11-20T20:25:52;8.40;79.60
38936;DHT22;25541;47.458;9.644;2022-11-20T20:28:18;8.50;79.70
38936;DHT22;25541;47.458;9.644;2022-11-20T20:30:44;8.50;80.40
38936;DHT22;25541;47.458;9.644;2022-11-20T20:33:09;8.50;80.90
38936;DHT22;25541;47.458;9.644;2022-11-20T20:35:40;8.30;81.30
38936;DHT22;25541;47.458;9.644;2022-11-20T20:38:06;8.20;82.50
38936;DHT22;25541;47.458;9.644;2022-11-20T20:40:32;8.10;82.80
38936;DHT22;25541;47.458;9.644;2022-11-20T20:42:58;8.10;82.80
38936;DHT22;25541;47.458;9.644;2022-11-20T20:45:23;8.00;84.10
38936;DHT22;25541;47.458;9.644;2022-11-20T20:47:49;7.80;85.20
38936;DHT22;25541;47.458;9.644;2022-11-20T20:50:15;7.70;84.90
38936;DHT22;25541;47.458;9.644;2022-11-20T20:52:40;7.60;85.10
38936;DHT22;25541;47.458;9.644;2022-11-20T20:55:06;7.60;86.10
38936;DHT22;25541;47.458;9.644;2022-11-20T20:57:32;7.60;85.20
38936;DHT22;25541;47.458;9.644;2022-11-20T20:59:58;7.60;85.10
38936;DHT22;25541;47.458;9.644;2022-11-20T21:02:24;7.60;85.20
38936;DHT22;25541;47.458;9.644;2022-11-20T21:04:50;7.60;84.70
38936;DHT22;25541;47.458;9.644;2022-11-20T21:07:16;7.60;84.00
38936;DHT22;25541;47.458;9.644;2022-11-20T21:09:43;7.70;84.50
38936;DHT22;25541;47.458;9.644;2022-11-20T21:12:08;7.60;85.80
38936;DHT22;25541;47.458;9.644;2022-11-20T21:14:34;7.60;86.00
38936;DHT22;25541;47.458;9.644;2022-11-20T21:17:00;7.60;86.10
38936;DHT22;25541;47.458;9.644;2022-11-20T21:19:26;7.60;87.40
38936;DHT22;25541;47.458;9.644;2022-11-20T21:21:51;7.70;87.60
38936;DHT22;25541;47.458;9.644;2022-11-20T21:24:24;7.60;87.40
38936;DHT22;25541;47.458;9.644;2022-11-20T21:26:50;7.60;88.60
38936;DHT22;25541;47.458;9.644;2022-11-20T21:29:17;7.60;88.20
38936;DHT22;25541;47.458;9.644;2022-11-20T21:31:43;7.70;88.50
38936;DHT22;25541;47.458;9.644;2022-11-20T21:34:10;7.70;88.80
38936;DHT22;25541;47.458;9.644;2022-11-20T21:36:36;7.70;89.00
38936;DHT22;25541;47.458;9.644;2022-11-20T21:39:02;7.70;88.30
38936;DHT22;25541;47.458;9.644;2022-11-20T21:41:28;7.70;88.40
38936;DHT22;25541;47.458;9.644;2022-11-20T21:43:58;7.70;87.80
38936;DHT22;25541;47.458;9.644;2022-11-20T21:46:24;7.80;88.90
38936;DHT22;25541;47.458;9.644;2022-11-20T21:48:51;7.80;87.90
38936;DHT22;25541;47.458;9.644;2022-11-20T21:51:23;7.80;88.10
38936;DHT22;25541;47.458;9.644;2022-11-20T21:53:49;7.70;88.90
38936;DHT22;25541;47.458;9.644;2022-11-20T21:56:18;7.70;89.20
38936;DHT22;25541;47.458;9.644;2022-11-20T21:58:44;7.70;89.90
38936;DHT22;25541;47.458;9.644;2022-11-20T22:01:12;7.60;90.50
38936;DHT22;25541;47.458;9.644;2022-11-20T22:03:38;7.60;90.50
38936;DHT22;25541;47.458;9.644;2022-11-20T22:06:06;7.60;90.90
38936;DHT22;25541;47.458;9.644;2022-11-20T22:08:36;7.60;90.60